Terminal Aerodrome Forecast
Issued by NWS Knoxville/Tri Cities, TN

Home | Current Version | Previous Version | Text Only | Print | Product List | Glossary On
Versions: 1 2 3 4 5 6 7 8 9 10 11 12 13 14 15 16 17 18 19
000
FTUS44 KMRX 302331
TAFCHA
TAF
KCHA 302331Z 3100/3124 25004KT P6SM SCT100 BKN250
     FM310700 00000KT 6SM BR SCT030 BKN250
      TEMPO 3109/3112 3SM BR SCT035
     FM311300 23002KT P6SM BKN250
     FM311800 29004KT P6SM SCT050 SCT250
     FM312100 29006KT P6SM BKN250=

USA.gov is the U.S. government's official web portal to all federal, state and local government web resources and services.